createdAt,value
2022-10-17T00:00:42.833Z,19.00
2022-10-17T00:03:28.577Z,19.00
2022-10-17T00:06:16.096Z,19.00
2022-10-17T00:09:02.774Z,19.00
2022-10-17T00:11:48.540Z,18.90
2022-10-17T00:14:34.622Z,18.90
2022-10-17T00:17:20.736Z,18.80
2022-10-17T00:20:07.826Z,18.90
2022-10-17T00:22:54.059Z,18.80
2022-10-17T00:25:40.587Z,18.80
2022-10-17T00:28:26.698Z,18.80
2022-10-17T00:31:12.655Z,18.80
2022-10-17T00:33:58.650Z,18.80
2022-10-17T00:36:44.613Z,18.80
2022-10-17T00:39:30.613Z,18.70
2022-10-17T00:42:17.865Z,18.70
2022-10-17T00:45:14.822Z,18.70
2022-10-17T00:48:08.472Z,18.70
2022-10-17T00:50:57.506Z,18.70
2022-10-17T00:53:45.274Z,18.70
2022-10-17T00:56:31.738Z,18.70
2022-10-17T00:59:20.563Z,18.70
2022-10-17T01:02:13.966Z,18.70
2022-10-17T01:05:00.378Z,18.80
2022-10-17T01:07:47.620Z,18.70
2022-10-17T01:11:08.641Z,18.70
2022-10-17T01:14:00.393Z,18.70
2022-10-17T01:17:03.512Z,18.70
2022-10-17T01:19:51.670Z,18.70
2022-10-17T01:22:47.452Z,18.60
2022-10-17T01:25:48.601Z,18.60
2022-10-17T01:29:11.858Z,18.50
2022-10-17T01:32:21.237Z,18.40
2022-10-17T01:35:33.421Z,18.40
2022-10-17T01:38:24.941Z,18.20
2022-10-17T01:41:27.881Z,18.20
2022-10-17T01:44:21.309Z,18.20
2022-10-17T01:47:14.505Z,18.20
2022-10-17T01:50:18.827Z,18.20
2022-10-17T01:53:12.781Z,18.20
2022-10-17T01:56:02.548Z,18.20
2022-10-17T01:58:57.277Z,18.20
2022-10-17T02:01:44.971Z,18.10
2022-10-17T02:04:30.841Z,18.20
2022-10-17T02:07:17.705Z,18.10
2022-10-17T02:10:09.055Z,18.00
2022-10-17T02:13:07.515Z,18.00
2022-10-17T02:16:08.340Z,18.00
2022-10-17T02:19:31.281Z,18.00
2022-10-17T02:22:30.704Z,18.00
2022-10-17T02:25:37.401Z,18.00
2022-10-17T02:28:43.590Z,18.00
2022-10-17T02:31:40.182Z,18.10
2022-10-17T02:34:32.615Z,18.00
2022-10-17T02:37:25.290Z,18.00
2022-10-17T02:40:14.424Z,18.00
2022-10-17T02:43:03.484Z,17.90
2022-10-17T02:45:50.494Z,17.90
2022-10-17T02:48:43.273Z,17.80
2022-10-17T02:51:52.568Z,17.80
2022-10-17T02:54:43.667Z,17.70
2022-10-17T02:57:33.413Z,17.70
2022-10-17T03:00:21.720Z,17.80
2022-10-17T03:03:24.296Z,17.80
2022-10-17T03:06:10.764Z,17.80
2022-10-17T03:08:56.440Z,17.80
2022-10-17T03:11:42.336Z,17.80
2022-10-17T03:14:28.657Z,17.80
2022-10-17T03:17:14.745Z,17.80
2022-10-17T03:20:00.612Z,17.90
2022-10-17T03:22:46.084Z,17.80
2022-10-17T03:25:31.647Z,17.70
2022-10-17T03:28:17.141Z,17.70
2022-10-17T03:31:11.125Z,17.70
2022-10-17T03:33:58.162Z,17.60
2022-10-17T03:36:44.179Z,17.60
2022-10-17T03:39:30.671Z,17.60
2022-10-17T03:42:16.728Z,17.50
2022-10-17T03:45:03.984Z,17.40
2022-10-17T03:47:50.065Z,17.30
2022-10-17T03:50:35.790Z,17.20
2022-10-17T03:53:22.200Z,17.10
2022-10-17T03:56:13.327Z,17.20
2022-10-17T03:58:59.402Z,17.20
2022-10-17T04:01:46.211Z,17.10
2022-10-17T04:04:32.106Z,17.10
2022-10-17T04:07:18.677Z,17.20
2022-10-17T04:10:08.411Z,17.10
2022-10-17T04:12:54.262Z,17.20
2022-10-17T04:15:39.915Z,17.30
2022-10-17T04:18:26.336Z,17.30
2022-10-17T04:21:12.786Z,17.20
2022-10-17T04:24:00.672Z,17.20
2022-10-17T04:27:00.656Z,17.10
2022-10-17T04:29:49.612Z,17.20
2022-10-17T04:32:40.600Z,17.20
2022-10-17T04:35:38.657Z,17.30
2022-10-17T04:38:29.536Z,17.30
2022-10-17T04:41:18.088Z,17.30
2022-10-17T04:44:04.565Z,17.20
2022-10-17T04:46:54.933Z,17.30
2022-10-17T04:52:37.478Z,17.30
2022-10-17T04:55:23.275Z,17.30
2022-10-17T04:58:09.174Z,17.20
2022-10-17T05:00:56.713Z,17.30
2022-10-17T05:03:47.063Z,17.20
2022-10-17T05:06:33.569Z,17.20
2022-10-17T05:09:42.732Z,17.20
2022-10-17T05:12:29.597Z,17.20
2022-10-17T05:15:15.570Z,17.30
2022-10-17T05:18:02.907Z,17.20
2022-10-17T05:20:49.305Z,17.30
2022-10-17T05:23:35.383Z,17.30
2022-10-17T05:26:22.298Z,17.30
2022-10-17T05:29:07.699Z,17.30
2022-10-17T05:31:58.347Z,17.30
2022-10-17T05:34:44.910Z,17.40
2022-10-17T05:37:31.489Z,17.30
2022-10-17T05:40:17.805Z,17.30
2022-10-17T05:43:04.378Z,17.30
2022-10-17T05:45:49.715Z,17.20
2022-10-17T05:48:39.276Z,17.30
2022-10-17T05:51:25.620Z,17.30
2022-10-17T05:54:14.338Z,17.30
2022-10-17T05:57:00.818Z,17.20
2022-10-17T05:59:50.293Z,17.20
2022-10-17T06:02:39.280Z,17.30
2022-10-17T06:05:26.842Z,17.30
2022-10-17T06:08:13.616Z,17.20
2022-10-17T06:10:59.720Z,17.30
2022-10-17T06:13:45.364Z,17.50
2022-10-17T06:16:37.440Z,17.40
2022-10-17T06:19:24.738Z,17.50
2022-10-17T06:22:10.778Z,17.40
2022-10-17T06:24:56.661Z,17.50
2022-10-17T06:27:43.192Z,17.60
2022-10-17T06:30:31.206Z,17.60
2022-10-17T06:33:17.941Z,17.60
2022-10-17T06:36:05.719Z,17.70
2022-10-17T06:38:51.394Z,17.80
2022-10-17T06:41:47.935Z,17.90
2022-10-17T06:44:37.310Z,18.00
2022-10-17T06:47:43.250Z,18.00
2022-10-17T06:51:06.235Z,18.10
2022-10-17T06:54:02.358Z,18.00
2022-10-17T06:57:14.122Z,18.10
2022-10-17T07:00:11.205Z,18.10
2022-10-17T07:03:05.282Z,17.90
2022-10-17T07:05:55.830Z,17.80
2022-10-17T07:08:46.327Z,17.80
2022-10-17T07:11:36.061Z,17.80
2022-10-17T07:14:22.187Z,17.70
2022-10-17T07:17:07.827Z,17.70
2022-10-17T07:19:53.266Z,17.80
2022-10-17T07:22:40.143Z,17.90
2022-10-17T07:25:26.829Z,18.00
2022-10-17T07:28:19.474Z,18.00
2022-10-17T07:31:08.278Z,18.10
2022-10-17T07:33:54.783Z,18.10
2022-10-17T07:36:40.869Z,18.20
2022-10-17T07:39:27.612Z,18.30
2022-10-17T07:42:14.584Z,18.30
2022-10-17T07:45:01.078Z,18.40
2022-10-17T07:47:49.929Z,18.40
2022-10-17T07:50:35.805Z,18.40
2022-10-17T07:53:21.432Z,18.50
2022-10-17T07:56:08.919Z,18.60
2022-10-17T08:01:46.337Z,18.60
2022-10-17T08:04:33.345Z,18.70
2022-10-17T08:07:24.157Z,18.70
2022-10-17T08:10:15.094Z,18.70
2022-10-17T08:13:02.217Z,18.70
2022-10-17T08:15:48.729Z,18.80
2022-10-17T08:18:36.313Z,18.80
2022-10-17T08:21:22.780Z,18.80
2022-10-17T08:24:08.729Z,18.90
2022-10-17T08:26:54.634Z,18.80
2022-10-17T08:29:41.315Z,18.90
2022-10-17T08:32:29.792Z,18.90
2022-10-17T08:35:16.305Z,19.00
2022-10-17T08:38:02.407Z,19.10
2022-10-17T08:40:49.615Z,19.10
2022-10-17T08:43:42.110Z,19.10
2022-10-17T08:46:36.074Z,19.10
2022-10-17T08:49:47.123Z,19.30
2022-10-17T08:52:48.879Z,19.30
2022-10-17T08:55:49.370Z,19.30
2022-10-17T08:58:37.890Z,19.40
2022-10-17T09:01:43.938Z,19.60
2022-10-17T09:04:50.031Z,19.60
2022-10-17T09:08:12.155Z,19.60
2022-10-17T09:11:05.132Z,19.50
2022-10-17T09:13:58.431Z,19.70
2022-10-17T09:17:06.406Z,19.70
2022-10-17T09:20:16.034Z,19.90
2022-10-17T09:23:17.532Z,20.00
2022-10-17T09:26:03.448Z,20.00
2022-10-17T09:28:56.252Z,20.00
2022-10-17T09:32:04.645Z,19.90
2022-10-17T09:34:55.529Z,20.00
2022-10-17T09:37:45.100Z,20.00
2022-10-17T09:40:38.692Z,20.00
2022-10-17T09:43:25.194Z,19.90
2022-10-17T09:46:26.786Z,19.90
2022-10-17T09:49:17.254Z,19.60
2022-10-17T09:52:06.402Z,19.90
2022-10-17T09:55:06.991Z,19.90
2022-10-17T09:57:52.743Z,19.90
2022-10-17T10:00:47.621Z,20.20
2022-10-17T10:03:33.982Z,20.30
2022-10-17T10:06:21.794Z,20.30
2022-10-17T10:09:25.947Z,20.40
2022-10-17T10:12:23.236Z,20.40
2022-10-17T10:15:37.595Z,20.50
2022-10-17T10:18:36.489Z,20.60
2022-10-17T10:21:25.476Z,20.70
2022-10-17T10:24:14.892Z,20.70
2022-10-17T10:27:04.581Z,20.80
2022-10-17T10:29:52.983Z,20.80
2022-10-17T10:32:38.956Z,20.90
2022-10-17T10:35:34.793Z,20.80
2022-10-17T10:38:21.453Z,20.90
2022-10-17T10:41:11.594Z,21.00
2022-10-17T10:43:57.877Z,21.10
2022-10-17T10:46:44.338Z,21.20
2022-10-17T10:49:32.890Z,21.00
2022-10-17T10:52:30.761Z,21.10
2022-10-17T10:55:28.776Z,21.20
2022-10-17T10:58:41.987Z,21.20
2022-10-17T11:01:51.657Z,21.40
2022-10-17T11:04:42.928Z,21.50
2022-10-17T11:08:00.150Z,21.60
2022-10-17T11:11:01.700Z,21.50
2022-10-17T11:14:00.318Z,21.70
2022-10-17T11:17:02.510Z,21.80
2022-10-17T11:19:52.723Z,21.90
2022-10-17T11:22:49.764Z,22.00
2022-10-17T11:25:38.218Z,22.00
2022-10-17T11:28:26.198Z,22.10
2022-10-17T11:31:17.432Z,22.20
2022-10-17T11:34:19.578Z,22.30
2022-10-17T11:37:40.881Z,22.40
2022-10-17T11:40:39.205Z,22.50
2022-10-17T11:43:47.991Z,22.60
2022-10-17T11:46:36.648Z,22.60
2022-10-17T11:49:29.373Z,22.70
2022-10-17T11:52:55.523Z,22.80
2022-10-17T11:55:41.399Z,22.90
2022-10-17T11:58:33.262Z,23.00
2022-10-17T12:01:44.691Z,23.00
2022-10-17T12:04:41.982Z,23.10
2022-10-17T12:08:01.314Z,23.30
2022-10-17T12:11:14.940Z,23.30
2022-10-17T12:14:04.946Z,23.50
2022-10-17T12:16:52.420Z,23.50
2022-10-17T12:19:38.711Z,23.40
2022-10-17T12:22:26.330Z,23.50
2022-10-17T12:25:20.268Z,23.70
2022-10-17T12:28:31.274Z,23.90
2022-10-17T12:31:17.416Z,24.10
2022-10-17T12:34:05.068Z,24.10
2022-10-17T12:36:51.171Z,23.90
2022-10-17T12:39:36.699Z,24.00
2022-10-17T12:42:33.888Z,24.00
2022-10-17T12:45:53.097Z,24.30
2022-10-17T12:48:41.650Z,24.40
2022-10-17T12:51:37.900Z,24.70
2022-10-17T12:54:24.089Z,24.80
2022-10-17T12:57:44.850Z,24.90
2022-10-17T13:00:36.622Z,24.90
2022-10-17T13:03:48.194Z,24.90
2022-10-17T13:06:39.904Z,25.10
2022-10-17T13:09:32.751Z,25.70
2022-10-17T13:12:24.976Z,25.90
2022-10-17T13:15:17.901Z,26.20
2022-10-17T13:18:03.787Z,26.00
2022-10-17T13:20:59.524Z,25.60
2022-10-17T13:23:47.791Z,26.20
2022-10-17T13:26:33.574Z,26.30
2022-10-17T13:29:21.825Z,26.10
2022-10-17T13:32:11.512Z,26.50
2022-10-17T13:35:41.984Z,27.50
2022-10-17T13:38:34.186Z,28.50
2022-10-17T13:41:37.063Z,30.00
2022-10-17T13:44:34.097Z,31.60
2022-10-17T13:47:25.665Z,31.30
2022-10-17T13:50:43.581Z,30.80
2022-10-17T13:53:34.890Z,30.50
2022-10-17T13:56:28.960Z,30.30
2022-10-17T13:59:23.968Z,30.50
2022-10-17T14:02:20.544Z,32.20
2022-10-17T14:05:17.883Z,33.20
2022-10-17T14:08:11.895Z,33.70
2022-10-17T14:10:58.734Z,33.10
2022-10-17T14:13:50.063Z,31.70
2022-10-17T14:16:41.535Z,30.60
2022-10-17T14:19:33.411Z,31.70
2022-10-17T14:22:28.503Z,32.70
2022-10-17T14:25:38.611Z,32.40
2022-10-17T14:28:25.649Z,30.80
2022-10-17T14:31:14.130Z,30.40
2022-10-17T14:34:01.737Z,30.50
2022-10-17T14:36:50.866Z,30.60
2022-10-17T14:39:37.250Z,30.70
2022-10-17T14:42:23.897Z,30.30
2022-10-17T14:45:14.314Z,30.90
2022-10-17T14:48:23.758Z,30.30
2022-10-17T14:51:15.384Z,30.00
2022-10-17T14:54:05.480Z,30.20
2022-10-17T14:56:54.388Z,30.60
2022-10-17T14:59:53.832Z,30.60
2022-10-17T15:02:41.080Z,30.60
2022-10-17T15:05:27.152Z,30.20
2022-10-17T15:08:15.855Z,30.30
2022-10-17T15:11:01.737Z,30.20
2022-10-17T15:13:47.766Z,30.30
2022-10-17T15:16:35.460Z,30.00
2022-10-17T15:19:21.508Z,29.40
2022-10-17T15:22:07.909Z,29.40
2022-10-17T15:24:53.850Z,28.70
2022-10-17T15:27:39.970Z,28.00
2022-10-17T15:30:32.410Z,27.40
2022-10-17T15:33:19.106Z,27.30
2022-10-17T15:36:05.615Z,27.40
2022-10-17T15:38:53.742Z,27.40
2022-10-17T15:41:39.144Z,27.40
2022-10-17T15:44:24.755Z,27.40
2022-10-17T15:47:24.357Z,27.80
2022-10-17T15:50:17.434Z,27.70
2022-10-17T15:53:08.913Z,27.10
2022-10-17T15:55:55.581Z,26.70
2022-10-17T15:58:41.151Z,26.40
2022-10-17T16:01:29.973Z,26.20
2022-10-17T16:04:17.294Z,26.00
2022-10-17T16:07:03.470Z,25.80
2022-10-17T16:09:49.201Z,25.60
2022-10-17T16:12:41.280Z,25.50
2022-10-17T16:15:28.578Z,25.30
2022-10-17T16:18:15.123Z,25.10
2022-10-17T16:21:01.060Z,24.90
2022-10-17T16:23:46.824Z,24.90
2022-10-17T16:26:33.024Z,24.80
2022-10-17T16:29:19.426Z,24.60
2022-10-17T16:32:04.832Z,24.40
2022-10-17T16:34:50.799Z,24.30
2022-10-17T16:37:36.988Z,24.30
2022-10-17T16:40:23.302Z,24.10
2022-10-17T16:43:13.239Z,24.00
2022-10-17T16:45:59.159Z,23.90
2022-10-17T16:48:46.145Z,23.70
2022-10-17T16:51:35.780Z,23.60
2022-10-17T16:54:21.141Z,23.60
2022-10-17T16:57:06.697Z,23.40
2022-10-17T16:59:52.724Z,23.40
2022-10-17T17:02:38.953Z,23.40
2022-10-17T17:05:25.454Z,23.30
2022-10-17T17:08:12.733Z,23.20
2022-10-17T17:10:59.023Z,23.10
2022-10-17T17:13:45.259Z,23.00
2022-10-17T17:16:33.682Z,22.90
2022-10-17T17:19:20.383Z,22.90
2022-10-17T17:22:06.760Z,22.90
2022-10-17T17:24:52.654Z,22.80
2022-10-17T17:27:38.236Z,22.80
2022-10-17T17:30:24.194Z,22.80
2022-10-17T17:33:11.269Z,22.70
2022-10-17T17:36:00.136Z,22.60
2022-10-17T17:38:47.647Z,22.60
2022-10-17T17:41:34.612Z,22.50
2022-10-17T17:44:20.960Z,22.40
2022-10-17T17:47:08.444Z,22.40
2022-10-17T17:49:56.488Z,22.30
2022-10-17T17:52:45.641Z,22.30
2022-10-17T17:55:31.719Z,22.30
2022-10-17T17:58:17.624Z,22.20
2022-10-17T18:01:15.136Z,22.10
2022-10-17T18:04:01.077Z,22.00
2022-10-17T18:06:46.979Z,22.00
2022-10-17T18:09:33.368Z,22.00
2022-10-17T18:12:20.460Z,22.00
2022-10-17T18:15:06.941Z,21.90
2022-10-17T18:17:54.133Z,21.90
2022-10-17T18:20:42.549Z,21.80
2022-10-17T18:23:29.311Z,21.80
2022-10-17T18:26:16.151Z,21.70
2022-10-17T18:29:03.554Z,21.60
2022-10-17T18:31:49.562Z,21.50
2022-10-17T18:34:35.971Z,21.50
2022-10-17T18:37:22.062Z,21.50
2022-10-17T18:40:10.735Z,21.50
2022-10-17T18:42:56.665Z,21.40
2022-10-17T18:45:42.656Z,21.40
2022-10-17T18:48:28.662Z,21.40
2022-10-17T18:51:16.900Z,21.40
2022-10-17T18:54:03.712Z,21.40
2022-10-17T18:56:51.340Z,21.20
2022-10-17T18:59:39.141Z,21.20
2022-10-17T19:02:25.575Z,21.10
2022-10-17T19:05:11.470Z,21.10
2022-10-17T19:07:57.404Z,21.00
2022-10-17T19:10:44.105Z,20.80
2022-10-17T19:13:32.202Z,20.90
2022-10-17T19:16:21.166Z,20.90
2022-10-17T19:19:18.776Z,20.90
2022-10-17T19:22:05.581Z,21.00
2022-10-17T19:24:51.537Z,21.00
2022-10-17T19:27:38.029Z,20.90
2022-10-17T19:30:24.250Z,20.80
2022-10-17T19:33:10.678Z,20.80
2022-10-17T19:35:59.036Z,20.80
2022-10-17T19:38:45.680Z,20.80
2022-10-17T19:41:32.757Z,20.70
2022-10-17T19:44:18.944Z,20.70
2022-10-17T19:47:05.144Z,20.70
2022-10-17T19:49:51.342Z,20.70
2022-10-17T19:52:38.196Z,20.60
2022-10-17T19:55:24.392Z,20.60
2022-10-17T19:58:10.895Z,20.60
2022-10-17T20:01:01.342Z,20.60
2022-10-17T20:03:48.520Z,20.50
2022-10-17T20:06:35.507Z,20.40
2022-10-17T20:09:21.897Z,20.50
2022-10-17T20:12:07.747Z,20.50
2022-10-17T20:14:54.999Z,20.60
2022-10-17T20:17:41.069Z,20.50
2022-10-17T20:20:28.105Z,20.50
2022-10-17T20:23:14.374Z,20.40
2022-10-17T20:26:08.690Z,20.40
2022-10-17T20:29:08.937Z,20.40
2022-10-17T20:31:58.118Z,20.30
2022-10-17T20:34:44.730Z,20.30
2022-10-17T20:37:36.437Z,20.20
2022-10-17T20:40:36.175Z,20.30
2022-10-17T20:43:23.042Z,20.20
2022-10-17T20:46:23.557Z,20.10
2022-10-17T20:49:21.783Z,20.10
2022-10-17T20:52:07.622Z,20.10
2022-10-17T20:54:53.559Z,20.10
2022-10-17T20:57:39.375Z,20.10
2022-10-17T21:00:26.184Z,20.00
2022-10-17T21:03:12.437Z,20.00
2022-10-17T21:05:58.970Z,20.10
2022-10-17T21:08:46.588Z,20.00
2022-10-17T21:11:33.489Z,20.00
2022-10-17T21:14:23.374Z,20.00
2022-10-17T21:17:09.950Z,20.00
2022-10-17T21:19:56.050Z,19.90
2022-10-17T21:22:42.440Z,20.00
2022-10-17T21:25:29.087Z,19.90
2022-10-17T21:28:17.844Z,19.80
2022-10-17T21:31:18.131Z,19.80
2022-10-17T21:34:13.354Z,19.60
2022-10-17T21:37:00.446Z,19.70
2022-10-17T21:39:46.589Z,19.70
2022-10-17T21:42:33.283Z,19.70
2022-10-17T21:45:25.906Z,19.70
2022-10-17T21:48:13.287Z,19.70
2022-10-17T21:51:03.456Z,19.60
2022-10-17T21:53:51.145Z,19.60
2022-10-17T21:56:40.253Z,19.60
2022-10-17T21:59:26.446Z,19.50
2022-10-17T22:02:14.782Z,19.50
2022-10-17T22:05:01.554Z,19.40
2022-10-17T22:07:48.024Z,19.40
2022-10-17T22:10:37.555Z,19.40
2022-10-17T22:13:23.724Z,19.50
2022-10-17T22:16:12.120Z,19.40
2022-10-17T22:19:03.302Z,19.40
2022-10-17T22:21:53.300Z,19.30
2022-10-17T22:24:40.184Z,19.40
2022-10-17T22:27:26.580Z,19.30
2022-10-17T22:30:37.568Z,19.40
2022-10-17T22:33:23.858Z,19.30
2022-10-17T22:36:09.807Z,19.30
2022-10-17T22:38:55.644Z,19.30
2022-10-17T22:41:41.675Z,19.20
2022-10-17T22:44:27.463Z,19.20
2022-10-17T22:47:13.475Z,19.20
2022-10-17T22:49:59.813Z,19.10
2022-10-17T22:52:45.949Z,19.10
2022-10-17T22:55:33.345Z,19.10
2022-10-17T22:58:19.732Z,19.10
2022-10-17T23:01:07.645Z,19.00
2022-10-17T23:03:54.010Z,19.00
2022-10-17T23:06:40.918Z,19.00
2022-10-17T23:12:13.220Z,18.80
2022-10-17T23:14:59.294Z,18.80
2022-10-17T23:17:45.715Z,18.80
2022-10-17T23:20:32.730Z,18.80
2022-10-17T23:23:19.765Z,18.80
2022-10-17T23:26:11.601Z,18.80
2022-10-17T23:28:57.901Z,18.70
2022-10-17T23:31:43.885Z,18.70
2022-10-17T23:34:30.532Z,18.70
2022-10-17T23:37:16.079Z,18.70
2022-10-17T23:40:02.416Z,18.60
2022-10-17T23:42:48.524Z,18.50
2022-10-17T23:45:36.844Z,18.50
2022-10-17T23:48:23.213Z,18.50
2022-10-17T23:51:09.762Z,18.50
2022-10-17T23:53:55.550Z,18.50
2022-10-17T23:56:41.916Z,18.50
2022-10-17T23:59:28.307Z,18.50
